This is the latest recevied weather packets stored in our database for station/object DC1NF-6. If no packets are shown the sender has not sent any weather packets the latest 10 day(s).
| Time | Temp. | Humidity | Pressure | Rain* | Wind** | Luminosity | Snow |
|---|---|---|---|---|---|---|---|
| 1777707333 | 18.89° C | 50% | 1023.3 hPa | 0 mm | - | - | - |
| 1777706730 | 18.33° C | 51% | 1023.3 hPa | 0 mm | - | - | - |
| 1777706126 | 17.78° C | 53% | 1023.4 hPa | 0 mm | - | - | - |
| 1777705522 | 17.22° C | 53% | 1023.4 hPa | 0 mm | - | - | - |
| 1777704919 | 16.67° C | 54% | 1023.4 hPa | 0 mm | - | - | - |
| 1777704375 | 15.56° C | 56% | 1023.5 hPa | 0 mm | - | - | - |
| 1777703771 | 15.56° C | 55% | 1023.5 hPa | 0 mm | - | - | - |
| 1777703168 | 15.56° C | 56% | 1023.5 hPa | 0 mm | - | - | - |
| 1777702563 | 14.44° C | 59% | 1023.4 hPa | 0 mm | - | - | - |
| 1777701960 | 13.33° C | 61% | 1023.5 hPa | 0 mm | - | - | - |
| 1777701356 | 12.78° C | 62% | 1023.5 hPa | 0 mm | - | - | - |
| 1777700752 | 12.22° C | 64% | 1023.5 hPa | 0 mm | - | - | - |
| 1777700148 | 11.67° C | 66% | 1023.6 hPa | 0 mm | - | - | - |
| 1777699545 | 11.11° C | 66% | 1023.6 hPa | 0 mm | - | - | - |
| 1777698941 | 11.11° C | 68% | 1023.6 hPa | 0 mm | - | - | - |
| 1777698336 | 10° C | 70% | 1023.6 hPa | 0 mm | - | - | - |
| 1777697733 | 10° C | 71% | 1023.5 hPa | 0 mm | - | - | - |
| 1777697129 | 10° C | 71% | 1023.4 hPa | 0 mm | - | - | - |
| 1777696525 | 7.78° C | 77% | 1023.5 hPa | 0 mm | - | - | - |
| 1777695922 | 6.67° C | 81% | 1023.5 hPa | 0 mm | - | - | - |
| 1777695319 | 6.67° C | 82% | 1023.5 hPa | 0 mm | - | - | - |
| 1777694715 | 6.11° C | 84% | 1023.5 hPa | 0 mm | - | - | - |
| 1777694172 | 6.11° C | 83% | 1023.5 hPa | 0 mm | - | - | - |
| 1777693569 | 6.11° C | 84% | 1023.4 hPa | 0 mm | - | - | - |
| 1777692964 | 6.11° C | 83% | 1023.6 hPa | 0 mm | - | - | - |
* Rain latest hour (hover to see other rain measurements)
** Current wind speed in m/s (hover to see current wind gust speed)